createdAt,value
2023-05-09T00:00:56.395Z,26.97
2023-05-09T00:01:56.752Z,28.37
2023-05-09T00:02:56.456Z,30.39
2023-05-09T00:03:56.485Z,26.34
2023-05-09T00:04:56.465Z,27.41
2023-05-09T00:05:56.451Z,28.40
2023-05-09T00:06:56.496Z,26.65
2023-05-09T00:07:56.476Z,28.20
2023-05-09T00:08:56.506Z,28.52
2023-05-09T00:09:56.514Z,27.14
2023-05-09T00:10:56.584Z,28.30
2023-05-09T00:11:56.568Z,27.52
2023-05-09T00:12:56.594Z,27.50
2023-05-09T00:13:56.559Z,28.57
2023-05-09T00:14:56.570Z,30.05
2023-05-09T00:15:56.617Z,26.98
2023-05-09T00:16:56.579Z,27.80
2023-05-09T00:17:56.675Z,25.00
2023-05-09T00:18:56.509Z,27.77
2023-05-09T00:19:56.533Z,27.82
2023-05-09T00:20:56.539Z,27.79
2023-05-09T00:21:56.549Z,25.41
2023-05-09T00:22:56.524Z,29.37
2023-05-09T00:23:56.495Z,28.88
2023-05-09T00:24:56.526Z,28.27
2023-05-09T00:25:56.510Z,26.50
2023-05-09T00:26:56.506Z,28.12
2023-05-09T00:27:56.481Z,28.39
2023-05-09T00:28:56.508Z,31.85
2023-05-09T00:29:56.509Z,26.60
2023-05-09T00:30:56.549Z,27.09
2023-05-09T00:31:56.548Z,26.77
2023-05-09T00:32:56.577Z,31.04
2023-05-09T00:33:56.606Z,26.21
2023-05-09T00:34:56.503Z,28.68
2023-05-09T00:35:56.509Z,27.43
2023-05-09T00:36:56.497Z,27.92
2023-05-09T00:37:56.565Z,28.14
2023-05-09T00:38:56.514Z,28.63
2023-05-09T00:39:56.570Z,27.39
2023-05-09T00:40:56.614Z,28.85
2023-05-09T00:41:56.616Z,28.47
2023-05-09T00:42:56.691Z,28.03
2023-05-09T00:43:56.717Z,27.08
2023-05-09T00:44:56.739Z,28.22
2023-05-09T00:45:56.831Z,28.60
2023-05-09T00:46:56.789Z,28.48
2023-05-09T00:47:56.904Z,28.88
2023-05-09T00:48:56.793Z,27.14
2023-05-09T00:49:56.920Z,27.40
2023-05-09T00:50:56.883Z,27.96
2023-05-09T00:51:56.913Z,26.47
2023-05-09T00:52:56.917Z,26.87
2023-05-09T00:53:56.918Z,29.62
2023-05-09T00:54:56.902Z,28.39
2023-05-09T00:55:56.919Z,27.34
2023-05-09T00:56:56.934Z,26.32
2023-05-09T00:57:56.946Z,29.01
2023-05-09T00:58:56.957Z,28.65
2023-05-09T00:59:56.956Z,26.32
2023-05-09T01:00:56.970Z,26.25
2023-05-09T01:01:56.970Z,31.00
2023-05-09T01:02:57.158Z,29.49
2023-05-09T01:03:56.979Z,30.49
2023-05-09T01:04:57.000Z,27.58
2023-05-09T01:05:57.064Z,26.84
2023-05-09T01:06:57.013Z,27.11
2023-05-09T01:07:56.969Z,26.65
2023-05-09T01:08:57.031Z,28.03
2023-05-09T01:09:57.044Z,26.91
2023-05-09T01:10:57.065Z,27.60
2023-05-09T01:11:57.133Z,26.52
2023-05-09T01:12:57.138Z,28.70
2023-05-09T01:13:57.150Z,29.50
2023-05-09T01:14:57.173Z,28.22
2023-05-09T01:15:57.185Z,26.25
2023-05-09T01:16:57.663Z,27.31
2023-05-09T01:17:57.277Z,26.72
2023-05-09T01:18:57.286Z,26.79
2023-05-09T01:19:57.281Z,26.92
2023-05-09T01:20:57.306Z,27.93
2023-05-09T01:21:57.460Z,28.80
2023-05-09T01:22:57.314Z,27.69
2023-05-09T01:23:57.340Z,25.93
2023-05-09T01:24:57.341Z,27.63
2023-05-09T01:25:57.318Z,29.74
2023-05-09T01:26:57.343Z,27.66
2023-05-09T01:27:57.337Z,26.71
2023-05-09T01:28:57.327Z,25.70
2023-05-09T01:29:57.351Z,31.35
2023-05-09T01:30:57.349Z,28.54
2023-05-09T01:31:57.325Z,27.83
2023-05-09T01:32:57.344Z,26.64
2023-05-09T01:33:57.342Z,29.28
2023-05-09T01:34:57.312Z,26.65
2023-05-09T01:35:57.382Z,28.68
2023-05-09T01:36:57.342Z,28.30
2023-05-09T01:37:57.430Z,30.30
2023-05-09T01:38:57.358Z,33.88
2023-05-09T01:39:57.366Z,31.20
2023-05-09T01:40:57.360Z,27.08
2023-05-09T01:41:57.639Z,28.69
2023-05-09T01:42:57.368Z,28.36
2023-05-09T01:43:57.497Z,28.46
2023-05-09T01:44:57.397Z,27.51
2023-05-09T01:45:57.429Z,29.83
2023-05-09T01:46:57.474Z,30.83
2023-05-09T01:47:57.499Z,26.45
2023-05-09T01:48:57.435Z,29.10
2023-05-09T01:49:57.443Z,26.41
2023-05-09T01:50:57.412Z,30.36
2023-05-09T01:51:57.434Z,28.77
2023-05-09T01:52:57.456Z,26.91
2023-05-09T01:53:57.601Z,29.30
2023-05-09T01:54:57.428Z,31.88
2023-05-09T01:55:57.447Z,31.05
2023-05-09T01:56:57.535Z,27.31
2023-05-09T01:57:57.477Z,27.49
2023-05-09T01:58:57.478Z,26.41
2023-05-09T01:59:57.485Z,26.99
2023-05-09T02:00:57.512Z,30.22
2023-05-09T02:01:57.672Z,28.07
2023-05-09T02:02:57.534Z,27.47
2023-05-09T02:03:57.445Z,28.66
2023-05-09T02:04:57.470Z,28.56
2023-05-09T02:05:57.491Z,25.90
2023-05-09T02:06:57.467Z,30.51
2023-05-09T02:07:57.451Z,27.56
2023-05-09T02:08:57.513Z,32.49
2023-05-09T02:09:57.560Z,28.07
2023-05-09T02:10:57.527Z,27.66
2023-05-09T02:11:57.548Z,27.90
2023-05-09T02:12:57.635Z,29.27
2023-05-09T02:13:57.540Z,30.50
2023-05-09T02:14:57.556Z,26.57
2023-05-09T02:15:57.553Z,27.64
2023-05-09T02:16:57.604Z,28.75
2023-05-09T02:17:57.569Z,28.75
2023-05-09T02:18:57.523Z,27.58
2023-05-09T02:19:57.560Z,27.97
2023-05-09T02:20:57.514Z,28.11
2023-05-09T02:21:57.668Z,28.31
2023-05-09T02:22:57.520Z,30.76
2023-05-09T02:23:57.467Z,27.38
2023-05-09T02:24:57.471Z,28.19
2023-05-09T02:25:57.577Z,28.82
2023-05-09T02:26:57.694Z,27.73
2023-05-09T02:27:57.465Z,31.57
2023-05-09T02:28:57.449Z,28.85
2023-05-09T02:29:57.446Z,30.09
2023-05-09T02:30:57.472Z,29.86
2023-05-09T02:31:57.516Z,28.22
2023-05-09T02:32:57.477Z,27.72
2023-05-09T02:33:57.476Z,29.23
2023-05-09T02:34:57.462Z,25.00
2023-05-09T02:35:57.455Z,28.62
2023-05-09T02:36:57.448Z,27.91
2023-05-09T02:37:57.479Z,27.00
2023-05-09T02:38:57.430Z,27.07
2023-05-09T02:39:57.435Z,26.54
2023-05-09T02:40:57.428Z,29.02
2023-05-09T02:41:57.537Z,29.47
2023-05-09T02:42:57.444Z,28.67
2023-05-09T02:43:57.430Z,29.94
2023-05-09T02:44:57.414Z,26.97
2023-05-09T02:45:57.482Z,27.91
2023-05-09T02:46:57.436Z,27.73
2023-05-09T02:47:57.450Z,30.89
2023-05-09T02:48:57.431Z,27.14
2023-05-09T02:49:57.423Z,31.19
2023-05-09T02:50:57.387Z,27.91
2023-05-09T02:51:57.408Z,25.91
2023-05-09T02:52:57.404Z,27.09
2023-05-09T02:53:57.369Z,29.27
2023-05-09T02:54:57.426Z,28.80
2023-05-09T02:55:57.392Z,28.80
2023-05-09T02:56:57.670Z,28.65
2023-05-09T02:58:11.889Z,26.37
2023-05-09T02:58:58.387Z,26.73
2023-05-09T02:59:57.406Z,27.29
2023-05-09T03:00:57.393Z,27.78
2023-05-09T03:01:57.470Z,28.99
2023-05-09T03:02:57.485Z,30.54
2023-05-09T03:03:57.400Z,29.60
2023-05-09T03:04:57.346Z,29.81
2023-05-09T03:05:57.383Z,26.96
2023-05-09T03:06:57.361Z,27.97
2023-05-09T03:07:57.330Z,26.92
2023-05-09T03:08:57.350Z,30.44
2023-05-09T03:09:57.331Z,30.09
2023-05-09T03:10:57.334Z,29.29
2023-05-09T03:11:57.343Z,30.45
2023-05-09T03:12:57.341Z,27.09
2023-05-09T03:13:57.401Z,26.51
2023-05-09T03:14:57.306Z,28.27
2023-05-09T03:15:57.314Z,26.07
2023-05-09T03:16:57.317Z,29.88
2023-05-09T03:17:57.381Z,27.34
2023-05-09T03:18:57.284Z,27.65
2023-05-09T03:19:57.298Z,27.60
2023-05-09T03:20:57.307Z,34.87
2023-05-09T03:21:57.245Z,27.65
2023-05-09T03:22:57.729Z,30.01
2023-05-09T03:23:57.244Z,28.66
2023-05-09T03:24:57.231Z,28.35
2023-05-09T03:25:57.250Z,25.98
2023-05-09T03:26:57.241Z,28.21
2023-05-09T03:27:57.203Z,29.89
2023-05-09T03:28:57.202Z,28.13
2023-05-09T03:29:57.293Z,27.50
2023-05-09T03:30:57.183Z,26.16
2023-05-09T03:31:57.203Z,28.07
2023-05-09T03:32:57.189Z,31.12
2023-05-09T03:33:57.199Z,26.84
2023-05-09T03:34:57.150Z,30.50
2023-05-09T03:35:57.142Z,27.87
2023-05-09T03:36:57.244Z,26.49
2023-05-09T03:37:57.170Z,26.02
2023-05-09T03:38:57.149Z,28.94
2023-05-09T03:39:57.138Z,26.78
2023-05-09T03:40:57.150Z,27.45
2023-05-09T03:41:57.142Z,28.02
2023-05-09T03:42:57.165Z,26.61
2023-05-09T03:43:57.083Z,27.26
2023-05-09T03:44:57.123Z,30.01
2023-05-09T03:45:57.215Z,26.74
2023-05-09T03:46:57.110Z,30.42
2023-05-09T03:47:57.108Z,28.09
2023-05-09T03:48:57.109Z,28.01
2023-05-09T03:49:57.069Z,27.43
2023-05-09T03:50:57.075Z,28.15
2023-05-09T03:51:57.117Z,26.90
2023-05-09T03:52:57.112Z,32.36
2023-05-09T03:53:57.055Z,31.19
2023-05-09T03:54:57.045Z,28.34
2023-05-09T03:55:57.042Z,28.23
2023-05-09T03:56:57.044Z,31.23
2023-05-09T03:57:57.050Z,30.92
2023-05-09T03:58:57.008Z,29.09
2023-05-09T03:59:57.013Z,26.43
2023-05-09T04:00:56.999Z,30.03
2023-05-09T04:01:57.106Z,28.63
2023-05-09T04:02:57.038Z,30.60
2023-05-09T04:03:57.014Z,28.17
2023-05-09T04:04:56.999Z,29.27
2023-05-09T04:05:56.978Z,28.21
2023-05-09T04:06:56.976Z,29.56
2023-05-09T04:07:56.957Z,27.46
2023-05-09T04:08:56.962Z,28.47
2023-05-09T04:09:56.930Z,29.23
2023-05-09T04:10:56.937Z,26.73
2023-05-09T04:11:56.903Z,25.65
2023-05-09T04:12:56.978Z,31.54
2023-05-09T04:13:56.968Z,25.12
2023-05-09T04:14:56.887Z,28.50
2023-05-09T04:15:56.894Z,28.45
2023-05-09T04:16:56.990Z,26.27
2023-05-09T04:17:57.104Z,30.74
2023-05-09T04:18:56.894Z,31.05
2023-05-09T04:19:56.931Z,27.47
2023-05-09T04:20:56.878Z,28.35
2023-05-09T04:21:56.878Z,28.92
2023-05-09T04:22:56.864Z,27.10
2023-05-09T04:23:56.859Z,28.16
2023-05-09T04:24:56.870Z,28.63
2023-05-09T04:25:56.862Z,31.30
2023-05-09T04:26:56.879Z,25.10
2023-05-09T04:27:56.877Z,27.56
2023-05-09T04:28:56.850Z,30.37
2023-05-09T04:29:56.882Z,28.17
2023-05-09T04:30:56.889Z,27.05
2023-05-09T04:31:56.945Z,29.47
2023-05-09T04:32:56.907Z,28.52
2023-05-09T04:33:56.958Z,27.04
2023-05-09T04:34:56.876Z,27.49
2023-05-09T04:35:56.860Z,28.14
2023-05-09T04:36:56.863Z,30.89
2023-05-09T04:37:56.816Z,29.46
2023-05-09T04:38:56.823Z,28.41
2023-05-09T04:39:56.829Z,27.25
2023-05-09T04:40:56.821Z,29.10
2023-05-09T04:41:56.816Z,27.41
2023-05-09T04:42:56.848Z,26.26
2023-05-09T04:43:56.819Z,29.69
2023-05-09T04:44:56.822Z,27.79
2023-05-09T04:45:56.848Z,26.84
2023-05-09T04:46:56.823Z,29.06
2023-05-09T04:47:57.265Z,26.93
2023-05-09T04:48:56.809Z,30.13
2023-05-09T04:49:56.901Z,28.72
2023-05-09T04:50:56.825Z,29.07
2023-05-09T04:51:56.822Z,30.03
2023-05-09T04:52:56.850Z,29.11
2023-05-09T04:53:56.819Z,29.84
2023-05-09T04:54:56.856Z,28.56
2023-05-09T04:55:56.845Z,27.07
2023-05-09T04:57:09.944Z,27.04
2023-05-09T04:57:57.893Z,27.29
2023-05-09T04:58:56.831Z,27.63
2023-05-09T04:59:56.819Z,27.54
2023-05-09T05:00:56.819Z,28.79
2023-05-09T05:01:56.865Z,28.15
2023-05-09T05:02:57.289Z,27.87
2023-05-09T05:03:56.813Z,31.24
2023-05-09T05:05:10.258Z,30.94
2023-05-09T05:05:57.884Z,31.16
2023-05-09T05:06:56.773Z,31.34
2023-05-09T05:07:56.823Z,28.29
2023-05-09T05:08:56.756Z,27.26
2023-05-09T05:09:56.753Z,30.60
2023-05-09T05:10:56.776Z,32.36
2023-05-09T05:12:01.270Z,31.42
2023-05-09T05:12:57.785Z,31.59
2023-05-09T05:13:56.771Z,30.02
2023-05-09T05:14:56.726Z,29.17
2023-05-09T05:15:56.738Z,29.62
2023-05-09T05:16:56.689Z,30.52
2023-05-09T05:17:56.730Z,26.21
2023-05-09T05:18:56.697Z,27.90
2023-05-09T05:19:56.700Z,29.16
2023-05-09T05:20:56.712Z,30.06
2023-05-09T05:21:56.850Z,28.63
2023-05-09T05:22:56.671Z,29.65
2023-05-09T05:23:56.662Z,27.35
2023-05-09T05:24:56.663Z,27.85
2023-05-09T05:25:56.669Z,26.95
2023-05-09T05:26:56.633Z,25.87
2023-05-09T05:27:56.750Z,27.50
2023-05-09T05:28:56.634Z,27.22
2023-05-09T05:29:56.610Z,25.00
2023-05-09T05:30:56.602Z,29.17
2023-05-09T05:31:56.723Z,25.92
2023-05-09T05:32:56.633Z,26.33
2023-05-09T05:33:56.599Z,30.26
2023-05-09T05:34:56.580Z,27.31
2023-05-09T05:35:56.569Z,29.85
2023-05-09T05:36:56.568Z,30.52
2023-05-09T05:37:56.673Z,28.21
2023-05-09T05:38:56.584Z,28.61
2023-05-09T05:39:56.550Z,28.73
2023-05-09T05:40:56.558Z,25.19
2023-05-09T05:41:56.521Z,29.40
2023-05-09T05:42:56.718Z,25.69
2023-05-09T05:43:56.526Z,28.50
2023-05-09T05:44:56.507Z,29.30
2023-05-09T05:45:56.547Z,29.76
2023-05-09T05:46:56.506Z,30.64
2023-05-09T05:47:56.556Z,32.07
2023-05-09T05:48:56.462Z,32.02
2023-05-09T05:49:56.494Z,34.97
2023-05-09T05:50:56.492Z,36.92
2023-05-09T05:51:56.494Z,32.32
2023-05-09T05:52:56.746Z,31.69
2023-05-09T05:53:56.547Z,37.15
2023-05-09T05:54:56.491Z,39.50
2023-05-09T05:55:56.449Z,44.04
2023-05-09T05:56:56.447Z,42.68
2023-05-09T05:57:56.771Z,44.27
2023-05-09T05:58:56.409Z,37.39
2023-05-09T05:59:56.413Z,48.84
2023-05-09T06:00:56.459Z,50.18
2023-05-09T06:01:56.451Z,53.32
2023-05-09T06:02:56.847Z,50.18
2023-05-09T06:03:56.510Z,48.78
2023-05-09T06:04:56.380Z,47.56
2023-05-09T06:05:56.413Z,52.41
2023-05-09T06:06:56.402Z,48.21
2023-05-09T06:07:56.391Z,52.47
2023-05-09T06:08:56.421Z,54.21
2023-05-09T06:09:56.491Z,51.79
2023-05-09T06:10:56.391Z,52.13
2023-05-09T06:11:56.405Z,59.16
2023-05-09T06:12:56.449Z,62.60
2023-05-09T06:13:56.423Z,63.99
2023-05-09T06:14:56.407Z,70.06
2023-05-09T06:16:01.934Z,79.01
2023-05-09T06:16:57.521Z,79.28
2023-05-09T06:17:56.796Z,79.78
2023-05-09T06:18:56.465Z,85.58
2023-05-09T06:19:56.410Z,87.43
2023-05-09T06:20:56.395Z,94.62
2023-05-09T06:21:56.415Z,95.89
2023-05-09T06:22:56.408Z,101.19
2023-05-09T06:24:56.371Z,105.76
2023-05-09T06:25:56.466Z,104.23
2023-05-09T06:26:56.352Z,108.50
2023-05-09T06:27:56.361Z,111.94
2023-05-09T06:28:56.343Z,105.59
2023-05-09T06:29:56.340Z,110.29
2023-05-09T06:30:56.362Z,110.23
2023-05-09T06:31:56.346Z,105.13
2023-05-09T06:32:56.366Z,101.63
2023-05-09T06:33:56.345Z,102.80
2023-05-09T06:34:56.308Z,103.22
2023-05-09T06:35:56.325Z,106.12
2023-05-09T06:36:56.283Z,106.11
2023-05-09T06:37:56.339Z,106.52
2023-05-09T06:38:56.294Z,103.02
2023-05-09T06:39:56.275Z,105.74
2023-05-09T06:40:56.271Z,101.46
2023-05-09T06:41:56.354Z,103.54
2023-05-09T06:42:56.752Z,106.86
2023-05-09T06:43:56.274Z,103.82
2023-05-09T06:44:56.286Z,106.27
2023-05-09T06:45:56.270Z,104.81
2023-05-09T06:46:56.210Z,105.17
2023-05-09T06:47:56.299Z,111.11
2023-05-09T06:48:56.207Z,106.54
2023-05-09T06:49:56.223Z,108.63
2023-05-09T06:50:56.222Z,112.93
2023-05-09T06:51:56.199Z,114.31
2023-05-09T06:52:56.236Z,122.15
2023-05-09T06:53:56.242Z,124.73
2023-05-09T06:54:56.176Z,122.55
2023-05-09T06:55:56.158Z,117.79
2023-05-09T06:56:56.163Z,120.63
2023-05-09T06:57:56.257Z,122.79
2023-05-09T06:58:56.171Z,123.93
2023-05-09T06:59:56.168Z,123.56
2023-05-09T07:00:56.134Z,124.09
2023-05-09T07:01:56.145Z,127.77
2023-05-09T07:02:56.152Z,124.14
2023-05-09T07:03:56.117Z,126.00
2023-05-09T07:04:56.181Z,126.03
2023-05-09T07:05:56.096Z,128.73
2023-05-09T07:06:56.129Z,128.59
2023-05-09T07:07:56.098Z,126.73
2023-05-09T07:08:56.098Z,128.28
2023-05-09T07:10:07.290Z,124.67
2023-05-09T07:10:57.042Z,124.99
2023-05-09T07:11:56.066Z,125.47
2023-05-09T07:12:56.129Z,124.90
2023-05-09T07:13:56.143Z,124.39
2023-05-09T07:14:56.025Z,128.84
2023-05-09T07:15:56.096Z,127.39
2023-05-09T07:17:05.155Z,127.34
2023-05-09T07:17:57.092Z,127.67
2023-05-09T07:18:56.007Z,129.06
2023-05-09T07:19:55.979Z,133.48
2023-05-09T07:20:56.010Z,136.49
2023-05-09T07:21:55.996Z,136.14
2023-05-09T07:22:56.048Z,141.04
2023-05-09T07:23:56.258Z,140.98
2023-05-09T07:24:55.966Z,139.97
2023-05-09T07:25:55.970Z,142.37
2023-05-09T07:26:55.940Z,143.77
2023-05-09T07:27:55.959Z,144.14
2023-05-09T07:28:55.988Z,145.20
2023-05-09T07:29:56.050Z,145.52
2023-05-09T07:30:55.927Z,147.87
2023-05-09T07:31:55.940Z,145.95
2023-05-09T07:32:55.973Z,149.15
2023-05-09T07:33:56.297Z,152.18
2023-05-09T07:34:55.922Z,155.94
2023-05-09T07:35:55.963Z,155.06
2023-05-09T07:36:55.996Z,153.77
2023-05-09T07:37:56.974Z,153.97
2023-05-09T07:38:56.309Z,153.95
2023-05-09T07:39:55.974Z,152.42
2023-05-09T07:40:55.989Z,153.86
2023-05-09T07:41:55.940Z,154.73
2023-05-09T07:42:55.959Z,157.97
2023-05-09T07:43:56.289Z,157.48
2023-05-09T07:44:55.912Z,160.82
2023-05-09T07:45:56.055Z,163.35
2023-05-09T07:46:55.901Z,162.82
2023-05-09T07:47:55.959Z,160.19
2023-05-09T07:48:56.275Z,161.68
2023-05-09T07:49:55.906Z,160.48
2023-05-09T07:50:55.900Z,162.29
2023-05-09T07:51:55.928Z,162.48
2023-05-09T07:52:55.832Z,164.89
2023-05-09T07:53:55.841Z,161.96
2023-05-09T07:54:55.876Z,165.78
2023-05-09T07:55:55.870Z,170.14
2023-05-09T07:56:55.845Z,172.95
2023-05-09T07:57:55.791Z,164.17
2023-05-09T07:58:56.006Z,157.65
2023-05-09T07:59:55.806Z,153.34
2023-05-09T08:00:55.808Z,151.93
2023-05-09T08:01:55.967Z,160.38
2023-05-09T08:02:55.848Z,166.02
2023-05-09T08:03:56.337Z,172.11
2023-05-09T08:04:55.785Z,166.67
2023-05-09T08:05:55.783Z,168.90
2023-05-09T08:06:55.762Z,173.09
2023-05-09T08:07:55.775Z,179.54
2023-05-09T08:08:55.757Z,184.98
2023-05-09T08:09:55.751Z,189.61
2023-05-09T08:10:55.723Z,193.13
2023-05-09T08:11:55.738Z,199.45
2023-05-09T08:12:55.759Z,202.70
2023-05-09T08:13:55.726Z,206.11
2023-05-09T08:14:55.711Z,204.50
2023-05-09T08:15:55.728Z,212.95
2023-05-09T08:16:55.714Z,213.44
2023-05-09T08:17:55.862Z,216.87
2023-05-09T08:18:55.826Z,219.92
2023-05-09T08:19:55.667Z,222.34
2023-05-09T08:20:55.673Z,220.44
2023-05-09T08:21:55.679Z,223.88
2023-05-09T08:22:55.683Z,226.66
2023-05-09T08:23:55.668Z,226.74
2023-05-09T08:24:55.707Z,230.73
2023-05-09T08:25:55.773Z,231.13
2023-05-09T08:26:55.825Z,233.60
2023-05-09T08:27:55.886Z,238.95
2023-05-09T08:28:56.283Z,240.59
2023-05-09T08:29:56.007Z,241.27
2023-05-09T08:30:56.151Z,238.92
2023-05-09T08:31:56.246Z,238.49
2023-05-09T08:32:56.212Z,248.01
2023-05-09T08:33:56.331Z,237.74
2023-05-09T08:34:56.296Z,244.18
2023-05-09T08:35:56.408Z,245.29
2023-05-09T08:36:56.414Z,247.60
2023-05-09T08:37:56.473Z,250.81
2023-05-09T08:38:56.806Z,250.00
2023-05-09T08:39:56.557Z,245.44
2023-05-09T08:40:56.631Z,248.01
2023-05-09T08:41:56.702Z,242.14
2023-05-09T08:42:56.745Z,243.39
2023-05-09T08:43:56.792Z,250.00
2023-05-09T08:44:56.832Z,246.58
2023-05-09T08:45:56.893Z,245.48
2023-05-09T08:46:56.967Z,244.33
2023-05-09T08:47:57.069Z,239.85
2023-05-09T08:48:57.312Z,246.54
2023-05-09T08:49:57.163Z,246.87
2023-05-09T08:50:57.087Z,237.74
2023-05-09T08:51:57.148Z,235.24
2023-05-09T08:52:57.198Z,234.48
2023-05-09T08:53:57.223Z,221.05
2023-05-09T08:54:57.270Z,206.68
2023-05-09T08:55:57.306Z,204.57
2023-05-09T08:56:57.367Z,203.62
2023-05-09T08:57:57.494Z,198.66
2023-05-09T08:58:57.554Z,190.81
2023-05-09T08:59:57.599Z,189.95
2023-05-09T09:00:57.659Z,197.39
2023-05-09T09:01:57.730Z,195.57
2023-05-09T09:02:57.798Z,198.68
2023-05-09T09:03:58.299Z,202.65
2023-05-09T09:04:57.928Z,207.59
2023-05-09T09:05:58.111Z,210.02
2023-05-09T09:06:57.990Z,209.95
2023-05-09T09:07:58.057Z,213.25
2023-05-09T09:08:58.342Z,210.65
2023-05-09T09:09:58.139Z,213.05
2023-05-09T09:10:58.218Z,212.67
2023-05-09T09:11:58.221Z,212.09
2023-05-09T09:12:58.323Z,217.10
2023-05-09T09:13:58.368Z,217.42
2023-05-09T09:14:58.397Z,227.08
2023-05-09T09:15:58.539Z,219.98
2023-05-09T09:16:58.596Z,224.09
2023-05-09T09:17:58.547Z,220.70
2023-05-09T09:18:59.175Z,218.82
2023-05-09T09:19:59.547Z,219.22
2023-05-09T09:20:58.555Z,219.99
2023-05-09T09:21:58.622Z,222.41
2023-05-09T09:22:58.499Z,225.75
2023-05-09T09:23:58.812Z,233.47
2023-05-09T09:24:58.510Z,237.39
2023-05-09T09:25:59.757Z,235.60
2023-05-09T09:26:58.565Z,232.89
2023-05-09T09:27:58.566Z,240.39
2023-05-09T09:28:58.589Z,224.92
2023-05-09T09:29:58.627Z,230.25
2023-05-09T09:30:58.659Z,230.00
2023-05-09T09:31:58.734Z,235.71
2023-05-09T09:32:58.728Z,240.10
2023-05-09T09:33:58.746Z,239.38
2023-05-09T09:34:58.758Z,235.37
2023-05-09T09:35:58.805Z,222.38
2023-05-09T09:36:58.845Z,202.11
2023-05-09T09:38:00.105Z,167.26
2023-05-09T09:38:59.328Z,164.56
2023-05-09T09:39:59.012Z,163.67
2023-05-09T09:40:59.011Z,150.90
2023-05-09T09:41:59.014Z,159.02
2023-05-09T09:42:58.995Z,152.65
2023-05-09T09:43:59.347Z,156.54
2023-05-09T09:44:59.015Z,159.19
2023-05-09T09:45:59.117Z,157.88
2023-05-09T09:46:58.994Z,153.90
2023-05-09T09:47:59.036Z,147.58
2023-05-09T09:48:59.336Z,137.83
2023-05-09T09:49:59.012Z,143.45
2023-05-09T09:50:59.010Z,140.02
2023-05-09T09:51:58.974Z,153.80
2023-05-09T09:52:58.980Z,150.64
2023-05-09T09:53:59.326Z,152.15
2023-05-09T09:54:59.015Z,146.05
2023-05-09T09:55:59.053Z,157.37
2023-05-09T09:56:59.112Z,166.73
2023-05-09T09:57:59.126Z,167.22
2023-05-09T09:58:59.200Z,165.95
2023-05-09T09:59:59.256Z,169.00
2023-05-09T10:00:59.353Z,165.80
2023-05-09T10:01:59.381Z,172.94
2023-05-09T10:02:59.494Z,171.57
2023-05-09T10:03:59.503Z,183.62
2023-05-09T10:04:59.543Z,179.33
2023-05-09T10:05:59.592Z,181.02
2023-05-09T10:06:59.690Z,179.33
2023-05-09T10:07:59.725Z,189.56
2023-05-09T10:08:59.837Z,176.61
2023-05-09T10:09:59.877Z,189.54
2023-05-09T10:10:59.816Z,192.09
2023-05-09T10:12:00.816Z,188.77
2023-05-09T10:12:59.945Z,193.75
2023-05-09T10:14:00.332Z,189.17
2023-05-09T10:14:59.985Z,192.07
2023-05-09T10:16:00.164Z,191.87
2023-05-09T10:17:00.246Z,196.31
2023-05-09T10:18:00.252Z,200.33
2023-05-09T10:19:00.234Z,206.90
2023-05-09T10:20:00.333Z,216.18
2023-05-09T10:21:00.173Z,214.34
2023-05-09T10:22:00.204Z,220.67
2023-05-09T10:23:00.219Z,218.67
2023-05-09T10:24:00.280Z,218.88
2023-05-09T10:25:00.347Z,221.43
2023-05-09T10:26:00.380Z,219.41
2023-05-09T10:27:00.327Z,219.30
2023-05-09T10:28:01.346Z,228.39
2023-05-09T10:29:00.379Z,228.99
2023-05-09T10:30:00.401Z,231.47
2023-05-09T10:31:00.461Z,229.72
2023-05-09T10:32:00.394Z,232.25
2023-05-09T10:33:00.461Z,232.86
2023-05-09T10:34:00.466Z,236.74
2023-05-09T10:35:00.836Z,236.06
2023-05-09T10:36:00.475Z,227.47
2023-05-09T10:37:00.507Z,217.21
2023-05-09T10:38:00.528Z,206.59
2023-05-09T10:39:00.541Z,203.66
2023-05-09T10:40:00.580Z,201.79
2023-05-09T10:41:00.629Z,200.71
2023-05-09T10:42:00.758Z,193.09
2023-05-09T10:43:00.686Z,194.62
2023-05-09T10:44:00.707Z,200.51
2023-05-09T10:45:00.727Z,202.38
2023-05-09T10:46:00.763Z,201.53
2023-05-09T10:47:00.845Z,202.33
2023-05-09T10:48:00.825Z,202.60
2023-05-09T10:49:00.843Z,204.59
2023-05-09T10:50:00.864Z,207.61
2023-05-09T10:51:00.857Z,206.35
2023-05-09T10:52:00.873Z,204.71
2023-05-09T10:53:00.908Z,204.95
2023-05-09T10:54:00.965Z,208.92
2023-05-09T10:55:01.339Z,211.06
2023-05-09T10:56:00.967Z,211.18
2023-05-09T10:57:00.973Z,210.82
2023-05-09T10:58:01.104Z,211.39
2023-05-09T10:59:01.014Z,210.19
2023-05-09T11:00:01.335Z,215.13
2023-05-09T11:01:01.021Z,217.72
2023-05-09T11:02:01.170Z,220.40
2023-05-09T11:03:01.094Z,217.69
2023-05-09T11:04:01.134Z,220.32
2023-05-09T11:05:01.367Z,220.54
2023-05-09T11:06:01.062Z,221.87
2023-05-09T11:07:01.100Z,225.34
2023-05-09T11:08:01.065Z,224.87
2023-05-09T11:09:01.090Z,221.40
2023-05-09T11:10:01.367Z,219.64
2023-05-09T11:11:01.153Z,211.99
2023-05-09T11:12:01.121Z,200.83
2023-05-09T11:13:01.134Z,156.88
2023-05-09T11:14:01.245Z,158.36
2023-05-09T11:15:01.356Z,178.67
2023-05-09T11:16:01.258Z,183.98
2023-05-09T11:17:01.240Z,183.38
2023-05-09T11:18:01.361Z,184.03
2023-05-09T11:19:01.335Z,182.73
2023-05-09T11:20:01.907Z,184.90
2023-05-09T11:21:01.426Z,188.11
2023-05-09T11:22:01.503Z,189.66
2023-05-09T11:23:01.508Z,171.20
2023-05-09T11:24:01.490Z,172.78
2023-05-09T11:25:01.852Z,173.10
2023-05-09T11:26:01.579Z,164.71
2023-05-09T11:27:01.600Z,175.82
2023-05-09T11:28:01.605Z,180.10
2023-05-09T11:29:01.600Z,177.54
2023-05-09T11:30:01.761Z,180.38
2023-05-09T11:31:01.675Z,179.02
2023-05-09T11:32:01.703Z,180.22
2023-05-09T11:33:01.736Z,179.42
2023-05-09T11:34:01.723Z,173.79
2023-05-09T11:35:01.900Z,173.39
2023-05-09T11:36:01.724Z,166.61
2023-05-09T11:37:01.734Z,173.16
2023-05-09T11:38:01.786Z,170.57
2023-05-09T11:39:01.835Z,160.98
2023-05-09T11:40:01.849Z,154.20
2023-05-09T11:41:01.875Z,128.07
2023-05-09T11:42:02.102Z,146.86
2023-05-09T11:43:01.923Z,155.79
2023-05-09T11:44:01.914Z,159.81
2023-05-09T11:45:02.360Z,158.42
2023-05-09T11:46:02.153Z,159.17
2023-05-09T11:47:02.015Z,147.01
2023-05-09T11:48:02.133Z,133.43
2023-05-09T11:49:02.145Z,122.20
2023-05-09T11:50:02.139Z,122.33
2023-05-09T11:51:02.180Z,125.60
2023-05-09T11:52:02.218Z,132.88
2023-05-09T11:53:02.267Z,135.06
2023-05-09T11:54:02.308Z,135.42
2023-05-09T11:55:02.352Z,136.51
2023-05-09T11:56:02.381Z,123.32
2023-05-09T11:57:02.412Z,109.10
2023-05-09T11:58:02.481Z,109.87
2023-05-09T11:59:02.513Z,113.53
2023-05-09T12:00:02.841Z,120.78
2023-05-09T12:01:02.622Z,113.07
2023-05-09T12:02:02.868Z,107.04
2023-05-09T12:03:02.812Z,95.44
2023-05-09T12:04:02.892Z,94.35
2023-05-09T12:05:02.853Z,89.78
2023-05-09T12:06:02.879Z,97.39
2023-05-09T12:07:02.936Z,86.59
2023-05-09T12:08:02.989Z,44.37
2023-05-09T12:09:03.073Z,33.48
2023-05-09T12:10:03.410Z,74.29
2023-05-09T12:11:03.214Z,82.83
2023-05-09T12:12:03.241Z,74.29
2023-05-09T12:13:03.369Z,78.92
2023-05-09T12:14:03.361Z,75.70
2023-05-09T12:15:03.849Z,76.69
2023-05-09T12:16:03.518Z,71.13
2023-05-09T12:17:03.590Z,77.23
2023-05-09T12:18:03.810Z,71.28
2023-05-09T12:19:03.682Z,79.02
2023-05-09T12:20:04.457Z,71.31
2023-05-09T12:21:03.832Z,80.71
2023-05-09T12:22:03.864Z,80.26
2023-05-09T12:23:03.941Z,82.61
2023-05-09T12:24:04.011Z,83.61
2023-05-09T12:25:04.382Z,85.38
2023-05-09T12:26:04.139Z,83.42
2023-05-09T12:27:04.196Z,87.14
2023-05-09T12:28:04.318Z,83.24
2023-05-09T12:29:04.297Z,83.79
2023-05-09T12:30:04.365Z,85.81
2023-05-09T12:31:04.485Z,80.37
2023-05-09T12:32:04.496Z,83.90
2023-05-09T12:33:04.608Z,80.37
2023-05-09T12:34:04.679Z,84.65
2023-05-09T12:35:04.669Z,84.29
2023-05-09T12:36:04.711Z,84.53
2023-05-09T12:37:04.766Z,85.67
2023-05-09T12:38:04.982Z,78.95
2023-05-09T12:39:04.873Z,87.90
2023-05-09T12:40:05.566Z,85.97
2023-05-09T12:41:05.064Z,86.78
2023-05-09T12:42:05.064Z,93.27
2023-05-09T12:43:05.131Z,90.53